Time;durP1;ratioP1;P1;durP2;ratioP2;P2;SDS_P1;SDS_P2;PMS_P1;PMS_P2;Temp;Humidity;BMP_temperature;BMP_pressure;BME280_temperature;BME280_humidity;BME280_pressure;Samples;Min_cycle;Max_cycle;Signal;HPM_P1;HPM_P2
2022/08/11 00:00:11;;;;;;;8.90;7.75;;;;;;;19.26;76.21;100280.52;1830652;76;21001;-74
2022/08/11 00:02:49;;;;;;;8.45;7.65;;;;;;;19.24;76.25;100273.18;1815068;77;21045;-75
2022/08/11 00:05:20;;;;;;;8.53;7.42;;;;;;;19.26;76.34;100284.54;1812039;78;20989;-74
2022/08/11 00:07:55;;;;;;;10.38;7.80;;;;;;;19.25;76.36;100288.23;1791951;79;21828;-74
2022/08/11 00:10:23;;;;;;;;;;;;;;;19.25;76.44;100280.20;1799495;78;21110;-75
2022/08/11 00:12:56;;;;;;;8.43;7.55;;;;;;;19.25;76.48;100289.58;1787493;78;20171;-74
2022/08/11 00:15:24;;;;;;;;;;;;;;;19.23;76.47;100287.59;1779569;78;21060;-73
2022/08/11 00:17:57;;;;;;;8.08;7.28;;;;;;;19.24;76.47;100287.08;1763432;79;20465;-74
2022/08/11 00:20:29;;;;;;;9.65;7.75;;;;;;;19.22;76.50;100276.55;1796435;78;21836;-74
2022/08/11 00:23:03;;;;;;;8.50;7.65;;;;;;;19.24;76.56;100263.81;1774696;79;21538;-76
2022/08/11 00:25:30;;;;;;;8.30;7.45;;;;;;;19.25;76.60;100260.11;1795405;79;22066;-75
2022/08/11 00:27:57;;;;;;;8.28;7.33;;;;;;;19.25;76.62;100262.80;1755398;79;22278;-75
2022/08/11 00:30:23;;;;;;;9.25;7.55;;;;;;;19.25;76.71;100269.48;1789534;78;21040;-73
2022/08/11 00:32:55;;;;;;;8.35;7.55;;;;;;;19.24;76.77;100257.63;1789459;78;22213;-74
2022/08/11 00:35:25;;;;;;;9.00;8.10;;;;;;;19.24;76.79;100250.42;1778697;78;21047;-74
2022/08/11 00:37:53;;;;;;;9.30;8.30;;;;;;;19.23;76.82;100247.42;1783785;79;21035;-74
2022/08/11 00:40:29;;;;;;;9.30;8.35;;;;;;;19.22;76.82;100247.10;1773293;79;21059;-74
2022/08/11 00:43:16;;;;;;;9.38;7.90;;;;;;;19.20;76.92;100242.41;1757602;79;21485;-74
2022/08/11 00:46:09;;;;;;;8.68;7.78;;;;;;;19.21;77.01;100247.28;1791146;78;21982;-74
2022/08/11 00:48:59;;;;;;;8.58;7.78;;;;;;;19.23;77.03;100251.44;1727550;78;21084;-74
2022/08/11 00:51:54;;;;;;;8.58;7.60;;;;;;;19.25;77.03;100247.23;1785205;78;21074;-75
2022/08/11 00:54:56;;;;;;;9.35;7.90;;;;;;;19.28;77.02;100254.90;1750792;78;21097;-75
2022/08/11 00:58:03;;;;;;;9.60;8.70;;;;;;;19.26;76.98;100251.58;1777757;78;21065;-75
2022/08/11 01:00:50;;;;;;;9.30;8.40;;;;;;;19.24;76.99;100250.93;1780350;79;21975;-75
2022/08/11 01:03:59;;;;;;;10.03;7.97;;;;;;;19.24;76.96;100259.80;1757955;79;21054;-74
2022/08/11 01:06:52;;;;;;;9.18;8.13;;;;;;;19.22;77.03;100256.98;1786600;79;21552;-73
2022/08/11 01:09:46;;;;;;;9.03;8.20;;;;;;;19.25;77.13;100272.67;1797426;78;21078;-75
2022/08/11 01:12:46;;;;;;;9.58;8.48;;;;;;;19.23;77.12;100273.37;1740300;79;21023;-75
2022/08/11 01:15:46;;;;;;;9.58;8.58;;;;;;;19.22;77.23;100274.38;1787755;78;21776;-74
2022/08/11 01:18:41;;;;;;;9.53;8.35;;;;;;;19.22;77.32;100279.73;1782959;79;21082;-73
2022/08/11 01:21:48;;;;;;;9.55;8.58;;;;;;;19.21;77.44;100282.92;1788923;79;21023;-75
2022/08/11 01:24:52;;;;;;;8.93;8.03;;;;;;;19.24;77.41;100282.55;1772470;79;21063;-74
2022/08/11 01:27:50;;;;;;;8.78;7.97;;;;;;;19.25;77.42;100279.38;1773258;78;21081;-73
2022/08/11 01:30:41;;;;;;;9.33;8.43;;;;;;;19.29;77.39;100276.14;1781349;79;21801;-74
2022/08/11 01:33:42;;;;;;;10.23;8.33;;;;;;;19.30;77.36;100279.17;1783112;78;21068;-74
2022/08/11 01:36:58;;;;;;;9.30;8.30;;;;;;;19.28;77.37;100281.67;1792862;79;21560;-77
2022/08/11 01:39:54;;;;;;;10.03;9.00;;;;;;;19.27;77.47;100285.37;1776395;78;21121;-74
2022/08/11 01:46:02;;;;;;;10.23;8.98;;;;;;;19.30;77.49;100293.89;1792028;79;22456;-74
2022/08/11 01:49:08;;;;;;;9.23;8.23;;;;;;;19.31;77.42;100283.50;1801252;79;20987;-74
2022/08/11 01:52:05;;;;;;;9.10;8.18;;;;;;;19.34;77.46;100286.33;1801117;79;20998;-75
2022/08/11 01:54:53;;;;;;;9.85;8.85;;;;;;;19.34;77.40;100284.47;1787023;79;21080;-74
2022/08/11 01:58:06;;;;;;;10.35;8.75;;;;;;;19.35;77.38;100286.14;1789585;77;21488;-75
2022/08/11 02:00:46;;;;;;;;;;;;;;;19.37;77.36;100273.90;1787957;79;22839;-73
2022/08/11 02:03:21;;;;;;;8.50;7.55;;;;;;;19.37;77.29;100269.38;1790816;79;20203;-73
2022/08/11 02:09:27;;;;;;;8.73;7.92;;;;;;;19.38;77.30;100278.23;1790969;79;21938;-75
2022/08/11 02:12:04;;;;;;;9.58;8.50;;;;;;;19.39;77.29;100280.73;1805025;79;20930;-74
2022/08/11 02:14:40;;;;;;;8.75;7.95;;;;;;;19.38;77.30;100275.05;1792801;78;21445;-74
2022/08/11 02:17:22;;;;;;;10.32;8.50;;;;;;;19.39;77.29;100266.51;1810837;77;21035;-75
2022/08/11 02:26:01;;;;;;;;;;;;;;;19.40;77.36;100265.02;1780079;78;21094;-75
2022/08/11 02:29:03;;;;;;;9.28;8.35;;;;;;;19.39;77.41;100267.34;1827378;77;21926;-75
2022/08/11 02:34:55;;;;;;;9.58;7.80;;;;;;;19.38;77.55;100264.84;1800518;77;20984;-74
2022/08/11 02:37:36;;;;;;;9.73;8.18;;;;;;;19.39;77.55;100257.13;1820352;76;21005;-73
2022/08/11 02:40:19;;;;;;;9.55;8.35;;;;;;;19.37;77.57;100258.66;1784118;78;21085;-74
2022/08/11 02:43:09;;;;;;;9.23;7.92;;;;;;;19.40;77.58;100261.00;1794687;78;21764;-74
2022/08/11 02:45:40;;;;;;;9.90;8.38;;;;;;;19.40;77.59;100270.38;1802316;78;21768;-74
2022/08/11 02:52:02;;;;;;;8.48;7.67;;;;;;;19.37;77.59;100253.30;1800856;78;21022;-74
2022/08/11 02:54:52;;;;;;;9.53;8.53;;;;;;;19.39;77.65;100249.09;1806124;78;20998;-74
2022/08/11 02:57:38;;;;;;;8.98;8.13;;;;;;;19.37;77.69;100252.47;1802821;78;21924;-74
2022/08/11 03:00:08;;;;;;;8.68;7.87;;;;;;;19.34;77.71;100256.35;1802422;77;21083;-74
2022/08/11 03:02:56;;;;;;;10.05;8.35;;;;;;;19.35;77.80;100263.87;1794086;78;20990;-75
2022/08/11 03:05:50;;;;;;;9.00;8.15;;;;;;;19.34;77.84;100256.35;1806004;78;21425;-74
2022/08/11 03:08:56;;;;;;;8.60;7.72;;;;;;;19.37;77.85;100275.23;1794752;78;21064;-75
2022/08/11 03:18:25;;;;;;;9.05;8.15;;;;;;;19.48;77.90;100298.07;1800604;77;21426;-74
2022/08/11 03:21:02;;;;;;;10.03;8.18;;;;;;;19.50;77.86;100317.50;1791352;79;21027;-73
2022/08/11 03:23:38;;;;;;;9.10;8.20;;;;;;;19.54;77.91;100325.48;1794270;79;21026;-76
2022/08/11 03:26:23;;;;;;;8.43;7.62;;;;;;;19.53;77.80;100324.66;1793568;79;21874;-74
2022/08/11 03:29:07;;;;;;;9.15;8.08;;;;;;;19.55;77.80;100328.48;1792317;79;20986;-79
2022/08/11 03:31:43;;;;;;;8.83;8.03;;;;;;;19.56;77.79;100318.96;1804410;77;21086;-75
2022/08/11 03:34:20;;;;;;;8.65;7.85;;;;;;;19.57;77.75;100323.30;1785110;79;21077;-74
2022/08/11 03:43:45;;;;;;;11.68;8.60;;;;;;;19.56;77.78;100347.09;1786157;79;21035;-74
2022/08/11 03:46:44;;;;;;;9.70;8.70;;;;;;;19.56;77.83;100340.39;1801148;79;20971;-75
2022/08/11 03:50:07;;;;;;;10.88;8.60;;;;;;;19.54;77.87;100333.52;1787894;79;21046;-75
2022/08/11 03:52:42;;;;;;;9.35;8.35;;;;;;;19.51;78.00;100329.88;1801326;77;21067;-74
2022/08/11 03:55:41;;;;;;;11.45;8.38;;;;;;;19.49;78.15;100330.03;1787487;79;21999;-75
2022/08/11 03:58:31;;;;;;;9.95;8.95;;;;;;;19.48;78.27;100319.50;1806663;77;21022;-75
2022/08/11 04:01:28;;;;;;;10.15;8.78;;;;;;;19.46;78.38;100321.03;1789545;79;21374;-76
2022/08/11 04:04:13;;;;;;;10.72;8.95;;;;;;;19.45;78.53;100312.16;1798239;79;21014;-74
2022/08/11 04:07:37;;;;;;;10.98;9.80;;;;;;;19.42;78.58;100299.65;1784820;79;20995;-73
2022/08/11 04:10:45;;;;;;;11.85;9.50;;;;;;;19.41;78.70;100296.14;1791868;77;21814;-74
2022/08/11 04:15:58;;;;;;;12.82;9.40;;;;;;;19.41;78.80;100275.22;1789820;79;21034;-75
2022/08/11 04:16:46;;;;;;;10.32;9.15;;;;;;;19.45;78.81;100285.88;1794390;77;20971;-73
2022/08/11 04:20:09;;;;;;;15.03;9.95;;;;;;;19.45;78.90;100283.20;1798423;79;21022;-74
2022/08/11 04:23:29;;;;;;;10.28;9.28;;;;;;;19.42;79.00;100272.36;1797235;79;20991;-74
2022/08/11 04:26:16;;;;;;;11.08;9.85;;;;;;;19.40;79.22;100232.88;1795025;77;21916;-73
2022/08/11 04:29:03;;;;;;;11.63;10.50;;;;;;;19.36;79.47;100202.09;1788275;79;20931;-74
2022/08/11 04:31:40;;;;;;;11.10;9.95;;;;;;;19.35;79.61;100192.41;1794155;79;21403;-73
2022/08/11 04:34:46;;;;;;;12.78;10.95;;;;;;;19.33;79.85;100163.64;1787949;79;21097;-73
2022/08/11 04:37:55;;;;;;;14.35;10.82;;;;;;;19.32;80.09;100173.20;1772873;78;21470;-74
2022/08/11 04:41:02;;;;;;;11.68;10.40;;;;;;;19.27;80.41;100188.45;1762784;79;21765;-75
2022/08/11 04:44:17;;;;;;;14.05;11.30;;;;;;;19.25;80.67;100197.19;1735379;82;21093;-75
2022/08/11 05:03:21;;;;;;;13.83;10.95;;;;;;;19.36;81.88;100245.45;1821590;76;21037;-74
2022/08/11 05:06:08;;;;;;;18.23;11.30;;;;;;;19.40;81.99;100243.59;1825588;76;21040;-74
2022/08/11 05:09:00;;;;;;;13.70;11.60;;;;;;;19.43;82.08;100247.23;1823267;76;21001;-73
2022/08/11 05:12:12;;;;;;;13.10;11.80;;;;;;;19.48;82.25;100252.03;1837350;76;22458;-75
2022/08/11 05:35:38;;;;;;;12.85;11.65;;;;;;;20.22;82.86;100238.66;1794853;78;21447;-75
2022/08/11 05:58:03;;;;;;;10.53;9.50;;;;;;;20.94;77.50;100240.49;1820512;78;21030;-75
2022/08/11 06:00:30;;;;;;;10.48;9.38;;;;;;;20.95;77.15;100238.98;1815183;78;21543;-74
2022/08/11 06:03:02;;;;;;;12.23;10.45;;;;;;;20.97;76.89;100235.59;1772585;78;21502;-75
2022/08/11 06:05:35;;;;;;;10.95;9.90;;;;;;;20.99;76.57;100238.91;1800742;77;21345;-74
2022/08/11 06:08:06;;;;;;;10.43;9.43;;;;;;;21.02;76.52;100239.85;1795228;78;21819;-73
2022/08/11 06:10:38;;;;;;;11.97;10.70;;;;;;;21.11;76.48;100234.67;1796673;78;22167;-73
2022/08/11 06:13:06;;;;;;;82.00;73.83;;;;;;;21.18;76.05;100229.36;1791115;78;21500;-73
2022/08/11 06:15:48;;;;;;;15.72;14.33;;;;;;;21.28;76.00;100221.00;1801437;77;21042;-72
2022/08/11 06:18:15;;;;;;;22.32;19.95;;;;;;;21.36;75.87;100223.03;1791065;78;21132;-73
2022/08/11 06:20:53;;;;;;;15.58;14.07;;;;;;;21.44;75.34;100218.02;1794121;78;21822;-73
2022/08/11 06:23:22;;;;;;;34.08;30.15;;;;;;;21.52;75.15;100219.70;1789306;78;21531;-73
2022/08/11 06:25:52;;;;;;;13.43;11.35;;;;;;;21.64;75.20;100223.02;1792179;78;20998;-73
2022/08/11 06:28:21;;;;;;;9.80;8.80;;;;;;;21.77;74.49;100221.42;1804673;78;20998;-75
2022/08/11 06:30:48;;;;;;;11.80;9.08;;;;;;;21.83;73.78;100217.44;1772000;78;21530;-74
2022/08/11 06:33:22;;;;;;;10.78;9.00;;;;;;;21.89;73.01;100210.42;1794290;78;21919;-73
2022/08/11 06:36:28;;;;;;;9.93;8.45;;;;;;;21.94;72.91;100207.98;1756405;79;21029;-73
2022/08/11 06:39:19;;;;;;;9.38;8.30;;;;;;;22.02;72.83;100211.84;1725739;81;21071;-72
2022/08/11 06:41:57;;;;;;;11.45;8.90;;;;;;;22.14;72.22;100208.92;1715405;78;22101;-75
2022/08/11 06:44:43;;;;;;;9.08;8.28;;;;;;;22.22;71.63;100215.47;1799599;78;21003;-75
2022/08/11 06:47:12;;;;;;;10.38;8.85;;;;;;;22.31;71.68;100211.27;1794156;78;21800;-74
2022/08/11 06:52:36;;;;;;;9.53;8.63;;;;;;;22.36;70.79;100214.16;1782644;79;20950;-75
2022/08/11 07:00:26;;;;;;;9.98;8.28;;;;;;;22.39;70.25;100217.78;1777754;79;20970;-71
2022/08/11 07:00:27;;;;;;;8.50;7.67;;;;;;;22.57;70.70;100219.39;1756068;79;21774;-73
2022/08/11 07:03:10;;;;;;;9.20;8.30;;;;;;;22.73;70.31;100215.50;1800198;78;21408;-73
2022/08/11 07:05:48;;;;;;;8.70;7.70;;;;;;;22.81;70.03;100220.69;1774831;79;21020;-73
2022/08/11 07:17:48;;;;;;;10.93;9.23;;;;;;;23.36;67.89;100221.37;1798798;78;21010;-74
2022/08/11 07:28:57;;;;;;;7.00;6.35;;;;;;;23.63;66.73;100224.34;1795104;78;21825;-74
2022/08/11 07:31:40;;;;;;;6.78;6.17;;;;;;;23.66;66.39;100226.64;1775243;78;21003;-73
2022/08/11 07:34:31;;;;;;;8.28;5.92;;;;;;;23.72;66.12;100212.81;1803589;77;22177;-72
2022/08/11 07:37:02;;;;;;;8.43;5.80;;;;;;;23.79;65.98;100222.24;1769666;78;21069;-71
2022/08/11 07:39:32;;;;;;;6.50;5.75;;;;;;;23.86;65.42;100225.23;1760742;81;21073;-72
2022/08/11 07:42:01;;;;;;;6.53;5.37;;;;;;;23.95;65.48;100226.66;1800959;77;21780;-76
2022/08/11 07:44:28;;;;;;;7.75;5.50;;;;;;;24.07;64.69;100232.73;1721922;81;21836;-73
2022/08/11 07:52:32;;;;;;;14.30;12.80;;;;;;;24.46;61.65;100226.36;1739974;81;21116;-71
2022/08/11 07:55:06;;;;;;;7.50;5.80;;;;;;;24.62;61.40;100226.39;1779302;80;21841;-73
2022/08/11 08:19:37;;;;;;;6.78;6.00;;;;;;;24.89;59.98;100207.58;1792896;78;21528;-76
2022/08/11 08:22:04;;;;;;;5.30;4.80;;;;;;;25.01;59.93;100207.20;1761294;78;21798;-75
2022/08/11 08:24:32;;;;;;;10.43;5.30;;;;;;;25.16;59.44;100214.16;1791267;78;20944;-79
2022/08/11 08:26:59;;;;;;;7.62;6.08;;;;;;;25.30;58.90;100217.07;1800546;78;21507;-74
2022/08/11 08:32:15;;;;;;;6.60;4.87;;;;;;;25.60;58.74;100213.14;1799643;77;21442;-76
2022/08/11 08:34:42;;;;;;;6.83;5.80;;;;;;;25.68;57.50;100215.55;1793737;78;21815;-75
2022/08/11 08:37:09;;;;;;;6.35;5.15;;;;;;;25.66;57.62;100217.10;1784565;78;21015;-76
2022/08/11 08:39:36;;;;;;;5.28;4.60;;;;;;;25.65;57.10;100214.63;1800237;78;21066;-74
2022/08/11 08:42:09;;;;;;;5.12;4.72;;;;;;;25.67;57.70;100221.48;1800237;78;20971;-73
2022/08/11 08:44:42;;;;;;;6.35;4.92;;;;;;;25.80;57.91;100221.07;1787578;78;21063;-73
2022/08/11 08:47:15;;;;;;;5.10;4.50;;;;;;;25.90;57.78;100226.78;1800557;78;21791;-73
2022/08/11 08:49:48;;;;;;;6.42;4.80;;;;;;;26.03;57.26;100227.97;1800152;78;27288;-75
2022/08/11 08:52:18;;;;;;;8.65;4.67;;;;;;;26.13;56.38;100216.61;1788375;78;21035;-76
2022/08/11 08:54:45;;;;;;;7.87;4.80;;;;;;;26.16;56.30;100233.24;1802171;78;21023;-74
2022/08/11 08:57:12;;;;;;;4.97;4.58;;;;;;;26.10;55.88;100231.43;1779085;78;20956;-73
2022/08/11 08:59:40;;;;;;;5.65;4.42;;;;;;;26.01;55.78;100227.91;1799763;78;21938;-75
2022/08/11 09:02:11;;;;;;;6.37;4.70;;;;;;;25.91;55.99;100230.61;1790151;78;21502;-76
2022/08/11 09:04:38;;;;;;;6.70;5.08;;;;;;;25.85;56.23;100233.38;1796298;78;21502;-74
2022/08/11 09:07:15;;;;;;;7.22;5.50;;;;;;;25.82;56.48;100233.84;1795910;78;20989;-72
2022/08/11 09:09:51;;;;;;;4.87;4.37;;;;;;;25.84;56.85;100229.85;1785125;78;21046;-72
2022/08/11 09:12:18;;;;;;;6.62;5.15;;;;;;;25.97;57.17;100228.89;1794664;78;21809;-74
2022/08/11 09:14:59;;;;;;;5.33;4.87;;;;;;;26.19;56.87;100236.84;1791822;78;21473;-73
2022/08/11 09:17:35;;;;;;;6.33;4.87;;;;;;;26.32;55.93;100235.01;1803941;77;20978;-72
2022/08/11 09:20:12;;;;;;;5.17;4.55;;;;;;;26.28;55.23;100231.12;1797359;78;21102;-74
2022/08/11 09:28:15;;;;;;;5.70;4.72;;;;;;;26.06;56.59;100245.13;1821091;77;20915;-77
2022/08/11 09:30:43;;;;;;;6.90;5.03;;;;;;;26.07;56.74;100248.66;1821823;77;20959;-79
2022/08/11 09:33:13;;;;;;;6.50;5.87;;;;;;;26.07;56.84;100241.89;1810805;77;21021;-77
2022/08/11 09:35:42;;;;;;;5.70;5.00;;;;;;;26.07;56.44;100253.55;1793589;78;20943;-75
2022/08/11 09:40:56;;;;;;;5.40;4.92;;;;;;;25.95;56.59;100248.56;1789602;78;21450;-76
2022/08/11 09:46:07;;;;;;;8.33;5.12;;;;;;;25.91;57.23;100248.20;1790796;78;21427;-77
2022/08/11 09:48:41;;;;;;;6.70;5.40;;;;;;;25.93;56.84;100248.80;1821493;77;21026;-76
2022/08/11 09:51:07;;;;;;;7.85;5.30;;;;;;;25.81;56.98;100247.07;1802357;77;21821;-77
2022/08/11 09:53:39;;;;;;;6.03;5.40;;;;;;;25.63;57.31;100251.38;1791043;78;21035;-78
2022/08/11 09:59:02;;;;;;;5.97;5.00;;;;;;;25.44;58.21;100242.09;1789919;79;20939;-77
2022/08/11 10:01:32;;;;;;;6.05;5.00;;;;;;;25.40;58.59;100244.43;1790344;78;20982;-76
2022/08/11 10:04:04;;;;;;;6.40;5.15;;;;;;;25.32;58.81;100245.53;1789235;78;21791;-76
2022/08/11 10:09:19;;;;;;;6.08;5.47;;;;;;;25.35;59.81;100249.66;1789867;80;21019;-74
2022/08/11 10:11:49;;;;;;;5.97;5.37;;;;;;;25.33;59.61;100249.89;1790627;78;21442;-76
2022/08/11 10:17:04;;;;;;;7.35;5.67;;;;;;;25.24;60.33;100251.20;1789652;79;22542;-76
2022/08/11 10:19:36;;;;;;;7.87;5.73;;;;;;;25.20;60.90;100257.30;1811401;77;20919;-78
2022/08/11 10:27:34;;;;;;;6.92;5.50;;;;;;;25.20;61.49;100251.36;1820874;78;21406;-75
2022/08/11 10:35:16;;;;;;;6.35;5.70;;;;;;;25.34;62.02;100254.24;1819991;77;20983;-74
2022/08/11 10:37:44;;;;;;;7.65;5.62;;;;;;;25.43;62.22;100258.02;1822005;78;20936;-74
2022/08/11 10:40:17;;;;;;;68.45;61.58;;;;;;;25.48;62.07;100250.05;1822410;78;21382;-74
2022/08/11 10:43:01;;;;;;;136.92;123.67;;;;;;;25.52;61.88;100256.69;1822365;77;21919;-74
2022/08/11 10:48:25;;;;;;;9.08;6.92;;;;;;;25.66;61.90;100267.67;1792520;78;20960;-73
2022/08/11 10:59:24;;;;;;;7.90;5.72;;;;;;;26.08;61.23;100270.09;1800639;78;20971;-74
2022/08/11 11:01:48;;;;;;;14.38;6.15;;;;;;;26.31;61.48;100280.74;1800001;78;21050;-73
2022/08/11 11:04:18;;;;;;;9.85;5.70;;;;;;;26.58;60.91;100286.69;1772529;78;21398;-74
2022/08/11 11:07:05;;;;;;;7.35;5.60;;;;;;;26.79;60.50;100287.00;1805848;78;20923;-74
2022/08/11 11:09:35;;;;;;;8.48;5.75;;;;;;;26.95;59.46;100284.71;1790650;78;22333;-73
2022/08/11 11:18:15;;;;;;;9.45;5.30;;;;;;;27.18;57.32;100279.90;1807857;77;21064;-74
2022/08/11 11:20:52;;;;;;;6.62;5.80;;;;;;;27.12;57.23;100282.17;1795973;78;20987;-74
2022/08/11 11:23:46;;;;;;;6.17;5.53;;;;;;;27.05;56.91;100287.19;1794030;78;22566;-75
2022/08/11 11:26:28;;;;;;;;;;;;;;;26.96;57.01;100280.94;1772093;79;20964;-74
2022/08/11 11:29:23;;;;;;;8.90;5.87;;;;;;;26.92;56.77;100275.66;1816360;77;20126;-76
2022/08/11 11:32:18;;;;;;;20.15;16.27;;;;;;;26.89;57.35;100273.42;1816880;76;21025;-73
2022/08/11 11:35:11;;;;;;;15.43;13.80;;;;;;;26.86;56.51;100276.08;1837260;76;20930;-75
2022/08/11 11:37:38;;;;;;;7.23;6.53;;;;;;;26.80;56.83;100272.39;1832321;77;22426;-71
2022/08/11 11:40:14;;;;;;;11.03;6.10;;;;;;;26.85;57.29;100277.14;1791750;79;20936;-71
2022/08/11 11:42:43;;;;;;;6.45;5.83;;;;;;;26.88;57.01;100273.95;1809447;77;20995;-71
2022/08/11 11:45:13;;;;;;;7.03;5.72;;;;;;;26.91;56.81;100271.30;1805602;79;21038;-72
2022/08/11 11:47:39;;;;;;;8.38;6.28;;;;;;;26.93;56.74;100267.33;1839736;77;21424;-72
2022/08/11 11:50:07;;;;;;;6.55;5.80;;;;;;;26.97;56.60;100270.39;1826212;76;22454;-75
2022/08/11 11:52:33;;;;;;;8.80;6.10;;;;;;;27.05;56.58;100272.80;1834684;77;20938;-72
2022/08/11 11:55:00;;;;;;;7.10;5.90;;;;;;;27.12;56.70;100274.03;1834626;76;20992;-74
2022/08/11 12:02:59;;;;;;;9.03;7.40;;;;;;;27.31;56.59;100275.60;1816866;77;21818;-73
2022/08/11 12:05:26;;;;;;;36.60;32.90;;;;;;;27.38;56.41;100270.91;1829377;76;21030;-73
2022/08/11 12:10:47;;;;;;;8.95;6.55;;;;;;;27.62;56.34;100262.26;1808618;77;21065;-72
2022/08/11 12:16:05;;;;;;;7.70;5.95;;;;;;;27.91;55.48;100265.39;1833649;77;21817;-73
2022/08/11 12:18:34;;;;;;;6.47;5.70;;;;;;;28.03;55.08;100269.44;1838500;76;20933;-74
2022/08/11 12:21:02;;;;;;;7.65;5.33;;;;;;;28.08;55.17;100270.06;1799931;79;21354;-73
2022/08/11 12:29:01;;;;;;;6.17;5.35;;;;;;;28.24;53.79;100276.12;1772082;79;21836;-73
2022/08/11 12:31:28;;;;;;;6.37;5.75;;;;;;;28.19;53.97;100275.50;1785790;79;21057;-72
2022/08/11 12:34:13;;;;;;;6.58;5.95;;;;;;;28.17;54.14;100276.78;1788681;79;21101;-71
2022/08/11 12:36:57;;;;;;;7.40;5.90;;;;;;;28.18;54.31;100275.70;1789753;79;21011;-72
2022/08/11 12:53:16;;;;;;;7.90;6.70;;;;;;;29.31;52.08;100273.53;1798651;79;21137;-73
2022/08/11 12:58:27;;;;;;;9.03;6.45;;;;;;;29.99;51.84;100264.75;1801292;79;21018;-76
2022/08/11 13:06:23;;;;;;;8.55;6.40;;;;;;;30.68;49.70;100272.44;1800905;78;20887;-74
2022/08/11 13:08:50;;;;;;;7.55;6.17;;;;;;;30.72;48.73;100271.69;1794695;79;22479;-74
2022/08/11 13:14:01;;;;;;;7.83;6.20;;;;;;;30.76;48.71;100274.17;1793495;79;20943;-74
2022/08/11 13:16:30;;;;;;;8.93;6.28;;;;;;;30.64;48.62;100265.33;1793770;79;20992;-74
2022/08/11 13:18:59;;;;;;;9.23;6.22;;;;;;;30.63;48.84;100264.20;1783727;79;21003;-72
2022/08/11 13:21:26;;;;;;;8.85;6.15;;;;;;;30.63;48.80;100260.92;1798375;77;22574;-72
2022/08/11 13:23:53;;;;;;;9.48;6.15;;;;;;;30.66;49.35;100261.80;1783406;79;20991;-72
2022/08/11 13:26:22;;;;;;;9.63;6.12;;;;;;;30.73;48.05;100269.23;1800601;79;21023;-72
2022/08/11 13:28:50;;;;;;;8.38;6.15;;;;;;;30.76;48.03;100263.80;1787028;79;21014;-73
2022/08/11 13:31:17;;;;;;;12.95;10.72;;;;;;;30.80;48.51;100267.68;1797681;78;21519;-72
2022/08/11 13:33:50;;;;;;;11.73;8.08;;;;;;;30.73;48.76;100263.79;1774352;78;21954;-72
2022/08/11 13:36:19;;;;;;;7.95;7.12;;;;;;;30.63;48.48;100263.65;1802921;78;21057;-72
2022/08/11 13:38:45;;;;;;;7.08;6.37;;;;;;;30.44;48.68;100264.53;1784723;79;20952;-72
2022/08/11 13:43:57;;;;;;;8.33;6.10;;;;;;;30.05;49.40;100268.38;1787146;79;21421;-73
2022/08/11 13:46:24;;;;;;;7.92;6.28;;;;;;;29.85;49.88;100261.59;1796581;79;22492;-73
2022/08/11 13:48:52;;;;;;;10.40;6.53;;;;;;;29.75;50.39;100253.82;1808947;77;21191;-73
2022/08/11 13:51:34;;;;;;;12.82;6.72;;;;;;;29.63;50.99;100261.56;1783617;79;20990;-73
2022/08/11 13:54:10;;;;;;;7.22;6.50;;;;;;;29.50;51.44;100265.97;1795695;79;20944;-72
2022/08/11 13:56:39;;;;;;;8.95;6.75;;;;;;;29.37;51.41;100260.84;1795433;79;21031;-74
2022/08/11 13:59:11;;;;;;;8.55;6.58;;;;;;;29.21;51.74;100258.41;1791536;79;21980;-73
2022/08/11 14:01:38;;;;;;;7.67;6.37;;;;;;;29.09;52.10;100256.31;1783072;79;20927;-72
2022/08/11 14:04:27;;;;;;;7.30;6.53;;;;;;;28.99;52.10;100262.94;1784290;79;20983;-75
2022/08/11 14:06:54;;;;;;;7.60;6.87;;;;;;;28.50;52.44;100263.38;1801487;77;21226;-73
2022/08/11 14:09:26;;;;;;;10.20;7.10;;;;;;;28.50;52.44;100263.38;1791587;79;21386;-74
2022/08/11 14:14:48;;;;;;;8.03;7.20;;;;;;;28.35;53.69;100265.78;1795995;79;21057;-78
2022/08/11 14:17:15;;;;;;;8.03;6.80;;;;;;;28.31;53.65;100267.34;1796028;79;21055;-75
2022/08/11 14:19:41;;;;;;;8.30;7.10;;;;;;;28.26;53.78;100259.58;1783876;79;21518;-73
2022/08/11 14:22:08;;;;;;;9.78;7.03;;;;;;;28.26;54.40;100255.50;1761801;80;21071;-75
2022/08/11 14:24:48;;;;;;;9.48;7.22;;;;;;;28.32;54.21;100251.33;1785210;79;21792;-74
2022/08/11 14:27:12;;;;;;;9.58;7.17;;;;;;;28.36;54.17;100248.95;1798750;79;21334;-73
2022/08/11 14:29:40;;;;;;;8.48;6.65;;;;;;;28.39;53.96;100245.23;1809680;79;21473;-75
2022/08/11 14:32:11;;;;;;;9.58;7.40;;;;;;;28.35;54.00;100250.02;1810187;77;21034;-74
2022/08/11 14:34:42;;;;;;;7.78;6.80;;;;;;;28.32;54.44;100249.97;1795854;79;21086;-73
2022/08/11 14:37:12;;;;;;;9.58;7.15;;;;;;;28.29;54.68;100240.95;1796916;79;21950;-73
2022/08/11 14:39:46;;;;;;;16.73;7.70;;;;;;;28.30;54.89;100241.25;1811466;79;21579;-75
2022/08/11 14:47:53;;;;;;;8.80;7.28;;;;;;;28.90;54.96;100229.88;1818365;79;21032;-74
2022/08/11 14:50:24;;;;;;;11.97;7.42;;;;;;;29.15;53.53;100228.14;1791017;78;21941;-73
2022/08/11 14:53:03;;;;;;;13.13;11.75;;;;;;;29.22;53.50;100226.59;1834851;77;20942;-73
2022/08/11 14:58:24;;;;;;;8.38;7.47;;;;;;;29.55;53.17;100221.16;1822193;77;20982;-74
2022/08/11 15:00:53;;;;;;;8.03;7.25;;;;;;;29.68;52.46;100223.23;1820298;77;21598;-75
2022/08/11 15:03:19;;;;;;;8.60;7.20;;;;;;;29.77;51.54;100224.44;1812246;77;21541;-74
2022/08/11 15:05:53;;;;;;;8.93;6.80;;;;;;;29.64;51.35;100229.72;1824228;77;21021;-76
2022/08/11 15:08:53;;;;;;;10.25;7.45;;;;;;;29.49;51.82;100230.84;1825589;77;21013;-75
2022/08/11 15:10:48;;;;;;;8.78;6.62;;;;;;;29.36;51.75;100225.20;1821368;77;20985;-75
2022/08/11 15:13:17;;;;;;;10.15;7.47;;;;;;;29.17;52.07;100227.34;1821435;77;20978;-73
2022/08/11 15:18:31;;;;;;;13.65;7.42;;;;;;;28.65;53.29;100223.42;1745550;82;21097;-74
2022/08/11 15:37:44;;;;;;;11.90;7.70;;;;;;;28.42;54.33;100224.36;1825501;77;20962;-75
2022/08/11 15:46:32;;;;;;;9.43;7.75;;;;;;;28.00;55.49;100227.02;1813027;78;21026;-76
2022/08/11 15:49:07;;;;;;;11.97;8.23;;;;;;;27.89;55.79;100229.52;1758888;80;21043;-74
2022/08/11 15:51:38;;;;;;;9.45;8.13;;;;;;;27.77;56.21;100234.13;1791376;79;20972;-76
2022/08/11 15:54:08;;;;;;;11.83;7.80;;;;;;;27.70;56.22;100225.30;1804811;78;21050;-76
2022/08/11 15:56:37;;;;;;;11.28;8.33;;;;;;;27.65;56.22;100225.14;1810308;78;22199;-74
2022/08/11 16:04:34;;;;;;;9.20;7.75;;;;;;;27.54;56.32;100234.13;1782386;79;21059;-80
2022/08/11 16:07:13;;;;;;;11.57;8.28;;;;;;;27.53;56.49;100231.94;1744073;80;21490;-76
2022/08/11 16:09:53;;;;;;;10.08;8.03;;;;;;;27.50;56.22;100231.56;1789279;78;21876;-77
2022/08/11 16:12:41;;;;;;;10.00;8.30;;;;;;;27.42;56.31;100234.66;1780743;80;21036;-76
2022/08/11 16:18:02;;;;;;;10.00;7.80;;;;;;;27.19;56.67;100234.92;1788342;78;21049;-74
2022/08/11 16:20:29;;;;;;;9.73;7.90;;;;;;;27.11;56.79;100242.03;1788147;78;21098;-75
2022/08/11 16:22:59;;;;;;;10.90;8.18;;;;;;;26.97;57.05;100235.16;1794560;79;22642;-74
2022/08/11 16:25:25;;;;;;;9.23;7.95;;;;;;;26.84;57.06;100238.08;1782897;79;21066;-75
2022/08/11 16:28:04;;;;;;;15.40;8.25;;;;;;;26.73;56.69;100237.81;1785479;79;21031;-78
2022/08/11 16:30:38;;;;;;;8.35;7.55;;;;;;;26.63;56.02;100237.52;1772043;79;21097;-78
2022/08/11 16:33:04;;;;;;;9.50;7.80;;;;;;;26.55;55.74;100232.98;1779793;79;21038;-78
2022/08/11 16:38:35;;;;;;;9.05;7.70;;;;;;;26.39;55.73;100229.84;1781265;79;21109;-77
2022/08/11 16:46:58;;;;;;;10.85;8.33;;;;;;;26.32;56.01;100230.95;1778149;79;21039;-78
2022/08/11 16:49:20;;;;;;;9.30;7.65;;;;;;;26.08;56.49;100232.72;1780143;79;21944;-77
2022/08/11 16:51:47;;;;;;;10.32;8.10;;;;;;;26.01;56.75;100226.02;1783145;79;21015;-77
2022/08/11 16:54:13;;;;;;;9.80;7.67;;;;;;;25.99;57.04;100225.42;1771020;79;21545;-75
2022/08/11 16:56:50;;;;;;;9.43;8.45;;;;;;;25.94;57.29;100227.44;1784286;79;21595;-80
2022/08/11 16:59:32;;;;;;;9.35;8.30;;;;;;;25.87;57.56;100232.66;1772339;79;21160;-82
2022/08/11 17:13:58;;;;;;;9.43;8.43;;;;;;;25.63;59.11;100226.20;1786318;79;21050;-79